Time;durP1;ratioP1;P1;durP2;ratioP2;P2;SDS_P1;SDS_P2;PMS_P1;PMS_P2;Temp;Humidity;BMP_temperature;BMP_pressure;BME280_temperature;BME280_humidity;BME280_pressure;Samples;Min_cycle;Max_cycle;Signal;HPM_P1;HPM_P2
2023/05/29 11:56:30;;;;;;;8.77;1.48;;;15.00;99.90;;;;;;5112333;27;20109;-68
2023/05/29 11:58:59;;;;;;;5.32;1.70;;;15.30;99.90;;;;;;5098289;28;20418;-68
2023/05/29 12:01:26;;;;;;;3.35;1.90;;;15.20;99.90;;;;;;5093781;28;20157;-68
2023/05/29 12:03:53;;;;;;;3.58;1.35;;;15.20;99.90;;;;;;5104418;28;20032;-69
2023/05/29 12:06:33;;;;;;;7.43;1.73;;;15.30;99.90;;;;;;5099494;28;20028;-68
2023/05/29 12:08:58;;;;;;;4.07;1.30;;;15.00;99.90;;;;;;5077190;28;20025;-77
2023/05/29 12:11:25;;;;;;;7.40;1.20;;;14.90;99.90;;;;;;5084659;28;20020;-68
2023/05/29 12:14:01;;;;;;;6.20;1.20;;;14.90;99.90;;;;;;5093633;28;20055;-68
2023/05/29 12:16:32;;;;;;;1.27;1.20;;;14.90;99.90;;;;;;5084063;28;20438;-67
2023/05/29 12:18:59;;;;;;;1.77;0.70;;;14.90;99.90;;;;;;5080112;28;20031;-67
2023/05/29 12:21:26;;;;;;;3.33;1.08;;;15.00;99.90;;;;;;5079032;28;20104;-67
2023/05/29 12:23:55;;;;;;;2.88;0.70;;;15.00;99.90;;;;;;5082933;28;20032;-68
2023/05/29 12:26:27;;;;;;;2.97;0.82;;;14.90;99.90;;;;;;5078526;28;20046;-67
2023/05/29 12:28:52;;;;;;;5.15;2.47;;;14.80;99.90;;;;;;5079452;28;20020;-67
2023/05/29 12:31:34;;;;;;;15.03;1.80;;;15.00;99.90;;;;;;5076741;28;20100;-69
2023/05/29 12:34:01;;;;;;;3.67;1.35;;;15.10;99.90;;;;;;5081413;28;20048;-68
2023/05/29 12:36:27;;;;;;;5.30;1.50;;;15.20;99.90;;;;;;5083245;28;20025;-69
2023/05/29 12:38:53;;;;;;;11.70;1.73;;;15.20;99.90;;;;;;5079015;28;20025;-68
2023/05/29 12:41:33;;;;;;;1.83;1.05;;;15.40;99.90;;;;;;5081832;28;20051;-69
2023/05/29 12:44:01;;;;;;;6.53;1.42;;;15.20;99.90;;;;;;5081522;28;20419;-77
2023/05/29 12:46:27;;;;;;;8.30;1.80;;;15.20;99.90;;;;;;5082968;28;20491;-69
2023/05/29 12:48:56;;;;;;;4.72;1.08;;;15.40;99.90;;;;;;5084087;28;20074;-66
2023/05/29 12:51:27;;;;;;;6.22;2.65;;;15.20;99.90;;;;;;5080131;28;20048;-67
2023/05/29 12:53:54;;;;;;;8.82;1.70;;;15.20;99.90;;;;;;5083614;28;20035;-66
2023/05/29 12:56:26;;;;;;;3.28;1.23;;;15.20;99.90;;;;;;5100448;28;20136;-68
2023/05/29 12:58:52;;;;;;;10.73;1.38;;;14.90;99.90;;;;;;5091722;28;20042;-66
2023/05/29 13:01:18;;;;;;;2.30;0.63;;;15.10;99.90;;;;;;5086506;28;20036;-67
2023/05/29 13:03:44;;;;;;;4.18;2.47;;;15.00;99.90;;;;;;5081798;28;20033;-66
2023/05/29 13:06:11;;;;;;;3.73;1.23;;;14.90;99.90;;;;;;5076913;28;20381;-68
2023/05/29 13:08:38;;;;;;;10.77;2.30;;;14.90;99.90;;;;;;5075530;28;20032;-67
2023/05/29 13:11:05;;;;;;;8.93;2.75;;;15.10;99.90;;;;;;5068723;28;20317;-67
2023/05/29 13:13:31;;;;;;;4.65;1.35;;;15.30;99.90;;;;;;5088468;28;20440;-67
2023/05/29 13:15:56;;;;;;;5.53;1.47;;;15.40;99.90;;;;;;5088620;28;20028;-76
2023/05/29 13:18:22;;;;;;;4.63;2.60;;;15.20;99.90;;;;;;5075952;28;20021;-67
2023/05/29 13:20:48;;;;;;;6.23;1.37;;;15.30;99.90;;;;;;5070521;28;20032;-66
2023/05/29 13:23:14;;;;;;;3.10;1.53;;;15.20;99.90;;;;;;5085955;28;20063;-67
2023/05/29 13:25:40;;;;;;;8.07;1.33;;;15.20;99.90;;;;;;5084597;28;20044;-68
2023/05/29 13:28:06;;;;;;;8.73;1.63;;;15.30;99.90;;;;;;5086287;28;20070;-67
2023/05/29 13:30:32;;;;;;;4.17;1.00;;;15.50;99.90;;;;;;5074406;28;20028;-67
2023/05/29 13:32:57;;;;;;;13.05;2.17;;;15.50;99.90;;;;;;5077415;28;20036;-67
2023/05/29 13:35:23;;;;;;;4.63;1.53;;;15.60;99.90;;;;;;5073748;28;20040;-69
2023/05/29 13:37:50;;;;;;;4.63;1.57;;;15.60;99.90;;;;;;5081777;28;20020;-68
2023/05/29 13:40:16;;;;;;;4.25;1.17;;;15.70;99.90;;;;;;5075141;28;20032;-67
2023/05/29 13:42:42;;;;;;;3.03;1.77;;;15.70;99.90;;;;;;5073065;28;20021;-68
2023/05/29 13:45:08;;;;;;;6.03;2.05;;;15.60;99.90;;;;;;5076861;28;20024;-67
2023/05/29 13:47:34;;;;;;;5.15;1.13;;;15.40;99.90;;;;;;5086218;28;20056;-67
2023/05/29 13:50:00;;;;;;;2.92;1.83;;;15.50;99.90;;;;;;5078103;28;20361;-67
2023/05/29 13:52:27;;;;;;;3.33;0.80;;;15.30;99.90;;;;;;5077613;28;20028;-67
2023/05/29 13:54:53;;;;;;;2.38;0.75;;;15.40;99.90;;;;;;5078243;28;20110;-67
2023/05/29 13:57:19;;;;;;;7.57;1.77;;;15.50;99.90;;;;;;5091588;28;20032;-71
2023/05/29 13:59:45;;;;;;;8.38;1.63;;;15.60;99.90;;;;;;5078333;28;20265;-68
2023/05/29 14:02:11;;;;;;;16.57;1.67;;;15.60;99.90;;;;;;5080178;28;20051;-68
2023/05/29 14:04:38;;;;;;;13.27;1.40;;;15.60;99.90;;;;;;5089267;28;20020;-67
2023/05/29 14:07:05;;;;;;;2.40;0.93;;;15.60;99.90;;;;;;5077184;28;20436;-68
2023/05/29 14:09:31;;;;;;;8.43;1.38;;;15.50;99.90;;;;;;5093389;28;20047;-67
2023/05/29 14:11:59;;;;;;;1.63;0.43;;;15.50;99.90;;;;;;5095421;28;20052;-68
2023/05/29 14:14:25;;;;;;;7.35;1.58;;;15.60;99.90;;;;;;5093888;28;20099;-68
2023/05/29 14:16:51;;;;;;;;;;;15.70;99.90;;;;;;5094681;28;20124;-79
2023/05/29 14:19:18;;;;;;;7.47;1.35;;;15.70;99.90;;;;;;5089335;28;19999;-67
2023/05/29 14:21:44;;;;;;;3.00;1.05;;;15.70;99.90;;;;;;5095810;28;20013;-68
2023/05/29 14:24:10;;;;;;;3.85;1.13;;;15.80;99.90;;;;;;5084019;28;20027;-67
2023/05/29 14:26:36;;;;;;;4.17;2.53;;;15.80;99.90;;;;;;5093650;28;20069;-72
2023/05/29 14:29:02;;;;;;;5.03;1.60;;;16.00;99.90;;;;;;5068076;28;20540;-68
2023/05/29 14:31:28;;;;;;;4.20;1.45;;;15.90;99.90;;;;;;5081184;28;20407;-68
2023/05/29 14:33:54;;;;;;;12.07;1.63;;;15.70;99.90;;;;;;5076538;28;20080;-67
2023/05/29 14:36:20;;;;;;;2.00;1.20;;;15.50;99.90;;;;;;5077811;28;20025;-68
2023/05/29 14:38:47;;;;;;;8.47;1.70;;;15.50;99.90;;;;;;5083149;28;20033;-68
2023/05/29 14:41:13;;;;;;;7.78;1.60;;;15.50;99.90;;;;;;5066870;28;20025;-67
2023/05/29 14:43:42;;;;;;;8.63;1.83;;;15.50;99.90;;;;;;5065385;28;20031;-68
2023/05/29 14:46:08;;;;;;;8.55;2.00;;;15.50;99.90;;;;;;5065634;28;20319;-67
2023/05/29 14:48:34;;;;;;;4.05;1.48;;;15.60;99.90;;;;;;5088489;28;20150;-68
2023/05/29 14:51:01;;;;;;;2.83;1.33;;;15.60;99.90;;;;;;5075456;28;20139;-76
2023/05/29 14:53:27;;;;;;;6.78;1.50;;;15.60;99.90;;;;;;5087248;28;20013;-76
2023/05/29 14:55:53;;;;;;;4.73;1.17;;;15.70;99.90;;;;;;5087394;28;20040;-67
2023/05/29 14:58:19;;;;;;;0.70;0.35;;;15.70;99.90;;;;;;5090486;28;20027;-66
2023/05/29 15:00:45;;;;;;;6.60;0.97;;;15.40;99.90;;;;;;5094493;28;20028;-68
2023/05/29 15:03:11;;;;;;;2.83;0.52;;;15.30;99.90;;;;;;5092572;28;20414;-67
2023/05/29 15:05:37;;;;;;;2.10;0.90;;;15.50;99.90;;;;;;5078608;28;20033;-67
2023/05/29 15:08:03;;;;;;;5.03;1.23;;;15.50;99.90;;;;;;5072545;28;20090;-76
2023/05/29 15:10:28;;;;;;;4.00;1.40;;;15.40;99.90;;;;;;5080814;28;20024;-68
2023/05/29 15:12:57;;;;;;;1.27;0.80;;;15.30;99.90;;;;;;5071623;28;20054;-68
2023/05/29 15:15:25;;;;;;;4.00;0.93;;;15.30;99.90;;;;;;5082789;28;20450;-68
2023/05/29 15:17:57;;;;;;;1.48;0.73;;;15.30;99.90;;;;;;5081474;28;20048;-68
2023/05/29 15:20:25;;;;;;;8.00;1.67;;;15.30;99.90;;;;;;5078822;28;20012;-68
2023/05/29 15:22:52;;;;;;;5.28;1.40;;;15.40;99.90;;;;;;5090173;28;20024;-67
2023/05/29 15:25:20;;;;;;;5.18;1.15;;;15.30;99.90;;;;;;5075310;28;20029;-75
2023/05/29 15:27:46;;;;;;;0.63;0.55;;;15.30;99.90;;;;;;5062985;28;20032;-77
2023/05/29 15:30:14;;;;;;;5.18;1.40;;;15.30;99.90;;;;;;5074885;28;20090;-68
2023/05/29 15:32:42;;;;;;;7.72;1.13;;;15.20;99.90;;;;;;5074509;28;20029;-75
2023/05/29 15:35:12;;;;;;;3.47;1.27;;;15.20;99.90;;;;;;5065123;28;20411;-69
2023/05/29 15:37:39;;;;;;;10.32;1.55;;;15.20;99.90;;;;;;5072350;28;20028;-68
2023/05/29 15:40:06;;;;;;;3.00;0.60;;;15.30;99.90;;;;;;5068180;28;20410;-68
2023/05/29 15:42:32;;;;;;;3.83;1.38;;;15.40;99.90;;;;;;5065676;28;20036;-68
2023/05/29 15:44:58;;;;;;;6.00;1.30;;;15.20;99.90;;;;;;5078092;28;20028;-67
2023/05/29 15:47:24;;;;;;;1.73;1.07;;;15.20;99.90;;;;;;5070236;28;20045;-68
2023/05/29 15:49:50;;;;;;;5.18;1.58;;;15.20;99.90;;;;;;5066925;28;20044;-68
2023/05/29 15:52:16;;;;;;;7.43;1.48;;;15.10;99.90;;;;;;5059663;28;20081;-68
2023/05/29 15:54:42;;;;;;;0.73;0.70;;;15.20;99.90;;;;;;5074384;28;20041;-68
2023/05/29 15:57:08;;;;;;;1.60;1.03;;;15.20;99.90;;;;;;5071007;28;20804;-68
2023/05/29 15:59:35;;;;;;;1.23;1.13;;;15.20;99.90;;;;;;5075067;28;20036;-67
2023/05/29 16:02:02;;;;;;;8.98;1.17;;;15.10;99.90;;;;;;5076166;28;20035;-67
2023/05/29 16:04:28;;;;;;;5.18;1.95;;;15.20;99.90;;;;;;5065550;28;20051;-68
2023/05/29 16:06:54;;;;;;;3.03;1.25;;;15.20;99.90;;;;;;5074052;28;20025;-75
2023/05/29 16:09:20;;;;;;;2.27;1.10;;;15.30;99.90;;;;;;5073913;28;20073;-67
2023/05/29 16:11:46;;;;;;;2.80;1.27;;;15.10;99.90;;;;;;5079544;28;20031;-67
2023/05/29 16:14:12;;;;;;;5.47;2.00;;;15.10;99.90;;;;;;5085005;28;20028;-67
2023/05/29 16:16:38;;;;;;;5.47;1.20;;;15.20;99.90;;;;;;5074726;28;20272;-67
2023/05/29 16:19:07;;;;;;;12.43;1.37;;;15.10;99.90;;;;;;5079578;28;20021;-67
2023/05/29 16:21:36;;;;;;;5.80;1.38;;;15.10;99.90;;;;;;5088880;28;20441;-69
2023/05/29 16:24:02;;;;;;;2.03;1.08;;;15.20;99.90;;;;;;5078142;28;20354;-69
2023/05/29 16:26:30;;;;;;;1.73;0.88;;;15.30;99.90;;;;;;5083314;28;20020;-69
2023/05/29 16:28:59;;;;;;;3.53;0.65;;;15.40;99.90;;;;;;5078705;28;20318;-72
2023/05/29 16:31:27;;;;;;;4.22;1.27;;;15.20;99.90;;;;;;5078162;28;20406;-73
2023/05/29 16:33:53;;;;;;;4.60;1.52;;;15.10;99.90;;;;;;5080701;28;20161;-68
2023/05/29 16:36:20;;;;;;;5.82;1.30;;;15.10;99.90;;;;;;5067013;28;20028;-68
2023/05/29 16:38:46;;;;;;;3.63;1.00;;;15.10;99.90;;;;;;5083274;28;20040;-68
2023/05/29 16:41:13;;;;;;;7.45;0.95;;;15.10;99.90;;;;;;5081129;28;20079;-68
2023/05/29 16:43:39;;;;;;;0.77;0.60;;;15.20;99.90;;;;;;5068608;28;20022;-69
2023/05/29 16:46:06;;;;;;;10.50;1.40;;;15.20;99.90;;;;;;5064082;28;20039;-68
2023/05/29 16:48:33;;;;;;;0.20;0.20;;;15.20;99.90;;;;;;5092833;28;20024;-75
2023/05/29 16:51:00;;;;;;;3.70;1.52;;;15.10;99.90;;;;;;5073301;28;20057;-67
2023/05/29 16:53:26;;;;;;;1.90;0.70;;;15.10;99.90;;;;;;5086749;28;20422;-72
2023/05/29 16:55:51;;;;;;;13.10;1.43;;;15.10;99.90;;;;;;5090553;28;20052;-67
2023/05/29 16:58:20;;;;;;;2.33;0.83;;;15.20;99.90;;;;;;5095922;28;20394;-69
2023/05/29 17:00:47;;;;;;;4.22;1.48;;;15.20;99.90;;;;;;5087474;28;20353;-68
2023/05/29 17:03:13;;;;;;;1.92;0.68;;;15.10;99.90;;;;;;5077572;28;20076;-68
2023/05/29 17:05:40;;;;;;;4.07;0.65;;;15.10;99.90;;;;;;5087338;28;20024;-69
2023/05/29 17:08:10;;;;;;;0.63;0.63;;;15.10;99.90;;;;;;5075399;28;20033;-67
2023/05/29 17:10:36;;;;;;;6.15;0.73;;;15.10;99.90;;;;;;5089380;28;20020;-68
2023/05/29 17:13:02;;;;;;;2.60;1.07;;;15.00;99.90;;;;;;5069227;28;20427;-77
2023/05/29 17:15:30;;;;;;;5.70;1.73;;;14.90;99.90;;;;;;5058300;28;20063;-67
2023/05/29 17:17:59;;;;;;;7.28;0.95;;;14.80;99.90;;;;;;5080729;28;20021;-67
2023/05/29 17:20:26;;;;;;;2.28;0.98;;;14.80;99.90;;;;;;5083160;28;20020;-67
2023/05/29 17:22:51;;;;;;;;;;;14.80;99.90;;;;;;5092367;28;20138;-67
2023/05/29 17:25:19;;;;;;;2.53;0.80;;;14.80;99.90;;;;;;5086096;28;19999;-66
2023/05/29 17:27:45;;;;;;;6.15;1.08;;;14.90;99.90;;;;;;5073845;28;20044;-68
2023/05/29 17:30:13;;;;;;;2.40;1.27;;;14.90;99.90;;;;;;5083553;28;20534;-67
2023/05/29 17:32:39;;;;;;;3.00;1.15;;;14.80;99.90;;;;;;5081834;28;20109;-67
2023/05/29 17:35:06;;;;;;;1.05;0.70;;;14.80;99.90;;;;;;5070181;28;20024;-69
2023/05/29 17:37:32;;;;;;;1.95;1.20;;;14.90;99.90;;;;;;5072853;28;20056;-69
2023/05/29 17:39:58;;;;;;;1.93;1.13;;;14.80;99.90;;;;;;5079331;28;20016;-68
2023/05/29 17:42:24;;;;;;;1.88;1.00;;;14.70;99.90;;;;;;5094372;28;20062;-67
2023/05/29 17:44:50;;;;;;;2.38;1.23;;;14.70;99.90;;;;;;5094987;28;20040;-67
2023/05/29 17:47:17;;;;;;;5.17;0.97;;;14.60;99.90;;;;;;5077844;28;20025;-76
2023/05/29 17:49:43;;;;;;;20.70;1.20;;;14.60;99.90;;;;;;5063941;28;20349;-68
2023/05/29 17:52:09;;;;;;;4.18;0.85;;;14.70;99.90;;;;;;5082448;28;20028;-68
2023/05/29 17:54:35;;;;;;;6.37;0.70;;;14.70;99.90;;;;;;5095432;28;20438;-68
2023/05/29 17:57:01;;;;;;;4.43;0.53;;;14.60;99.90;;;;;;5083204;28;20307;-67
2023/05/29 17:59:29;;;;;;;0.50;0.35;;;14.60;99.90;;;;;;5092736;28;20085;-67
2023/05/29 18:01:56;;;;;;;4.32;1.27;;;14.50;99.90;;;;;;5082964;28;20112;-67
2023/05/29 18:04:22;;;;;;;3.45;0.80;;;14.50;99.90;;;;;;5084649;28;20067;-76
2023/05/29 18:06:48;;;;;;;11.20;0.93;;;14.50;99.90;;;;;;5081475;28;20287;-68
2023/05/29 18:09:14;;;;;;;3.80;1.02;;;14.40;99.90;;;;;;5076138;28;20028;-68
2023/05/29 18:11:43;;;;;;;3.80;1.40;;;14.40;99.90;;;;;;5077547;28;20028;-68
2023/05/29 18:14:11;;;;;;;5.93;1.48;;;14.50;99.90;;;;;;5077753;28;20292;-68
2023/05/29 18:16:39;;;;;;;4.18;1.17;;;14.30;99.90;;;;;;5059452;28;20016;-68
2023/05/29 18:19:08;;;;;;;3.55;1.00;;;14.20;99.90;;;;;;5082398;28;20295;-68
2023/05/29 18:21:35;;;;;;;3.58;1.45;;;14.10;99.90;;;;;;5066555;28;20033;-67
2023/05/29 18:24:01;;;;;;;1.50;0.80;;;14.10;99.90;;;;;;5080637;28;20403;-69
2023/05/29 18:26:27;;;;;;;7.28;1.52;;;14.10;99.90;;;;;;5064444;28;20028;-67
2023/05/29 18:28:54;;;;;;;1.80;0.73;;;14.20;99.90;;;;;;5066100;28;20028;-73
2023/05/29 18:31:20;;;;;;;5.55;1.45;;;14.10;99.90;;;;;;5069183;28;20327;-69
2023/05/29 18:33:47;;;;;;;2.38;0.35;;;14.10;99.90;;;;;;5087434;28;20041;-68
2023/05/29 18:36:13;;;;;;;8.98;1.42;;;14.10;99.90;;;;;;5068992;28;20024;-69
2023/05/29 18:38:39;;;;;;;3.07;0.90;;;14.00;99.90;;;;;;5068844;28;20063;-70
2023/05/29 18:41:05;;;;;;;18.73;0.90;;;13.90;99.90;;;;;;5068829;28;20103;-68
2023/05/29 18:43:31;;;;;;;4.28;1.20;;;13.90;99.90;;;;;;5069075;28;20032;-70
2023/05/29 18:45:56;;;;;;;7.57;1.53;;;13.90;99.90;;;;;;5061967;28;20033;-75
2023/05/29 18:48:22;;;;;;;5.83;0.87;;;13.90;99.90;;;;;;5062579;28;20020;-69
2023/05/29 18:50:48;;;;;;;2.83;1.30;;;13.90;99.90;;;;;;5064652;28;20032;-69
2023/05/29 18:53:14;;;;;;;14.82;1.52;;;13.90;99.90;;;;;;5062187;28;20036;-68
2023/05/29 18:55:40;;;;;;;3.30;0.83;;;13.90;99.90;;;;;;5063096;28;20041;-68
2023/05/29 18:58:07;;;;;;;3.17;1.20;;;13.90;99.90;;;;;;5066674;28;20524;-68
2023/05/29 19:00:33;;;;;;;2.88;0.85;;;13.80;99.90;;;;;;5065473;28;20284;-67
2023/05/29 19:02:59;;;;;;;3.50;1.05;;;13.70;99.90;;;;;;5063965;28;20025;-69
2023/05/29 19:05:25;;;;;;;4.68;1.27;;;13.70;99.90;;;;;;5064677;28;20699;-69
2023/05/29 19:07:53;;;;;;;3.83;0.98;;;13.50;99.90;;;;;;5063758;28;20029;-69
2023/05/29 19:10:19;;;;;;;5.85;1.63;;;13.40;99.90;;;;;;5064465;28;20036;-70
2023/05/29 19:12:46;;;;;;;6.00;1.20;;;13.50;99.90;;;;;;5065355;28;20028;-77
2023/05/29 19:15:15;;;;;;;6.65;1.20;;;13.30;99.90;;;;;;5063915;28;20028;-68
2023/05/29 19:17:41;;;;;;;11.23;1.10;;;13.30;99.90;;;;;;5067579;28;20054;-68
2023/05/29 19:20:08;;;;;;;6.78;1.17;;;13.20;99.90;;;;;;5079352;28;20184;-70
2023/05/29 19:22:34;;;;;;;5.82;1.30;;;13.20;99.90;;;;;;5068899;28;20029;-69
2023/05/29 19:25:02;;;;;;;4.82;1.08;;;13.20;99.90;;;;;;5078051;28;20303;-68
2023/05/29 19:27:28;;;;;;;7.43;1.40;;;13.10;99.90;;;;;;5078030;28;20055;-69
2023/05/29 19:29:54;;;;;;;5.75;1.15;;;13.10;99.90;;;;;;5073064;28;20028;-69
2023/05/29 19:32:22;;;;;;;8.88;2.83;;;13.00;99.90;;;;;;5073529;28;20029;-69
2023/05/29 19:34:51;;;;;;;3.28;0.80;;;13.00;99.90;;;;;;5067797;28;20074;-68
2023/05/29 19:37:17;;;;;;;5.97;1.52;;;13.00;99.90;;;;;;5070303;28;20527;-68
2023/05/29 19:39:43;;;;;;;6.73;1.07;;;12.90;99.90;;;;;;5065631;28;20035;-68
2023/05/29 19:42:09;;;;;;;6.93;0.70;;;12.90;99.90;;;;;;5069355;28;20025;-69
2023/05/29 19:44:35;;;;;;;1.97;1.10;;;12.80;99.90;;;;;;5087110;28;20021;-75
2023/05/29 19:47:01;;;;;;;8.50;2.03;;;12.70;99.90;;;;;;5084848;28;20020;-69
2023/05/29 19:49:27;;;;;;;12.80;1.10;;;12.70;99.90;;;;;;5071500;28;20115;-69
2023/05/29 19:51:58;;;;;;;3.27;1.30;;;12.60;99.90;;;;;;5075428;28;20032;-68
2023/05/29 19:54:25;;;;;;;2.17;1.13;;;12.60;99.90;;;;;;5083255;28;20446;-68
2023/05/29 19:56:51;;;;;;;4.78;1.50;;;12.50;99.90;;;;;;5077728;28;20059;-68
2023/05/29 19:59:18;;;;;;;2.75;0.77;;;12.50;99.90;;;;;;5084096;28;20028;-66
2023/05/29 20:01:44;;;;;;;3.92;0.85;;;12.50;99.90;;;;;;5085174;28;20029;-68
2023/05/29 20:04:10;;;;;;;5.57;1.17;;;12.40;99.90;;;;;;5070176;28;20031;-68
2023/05/29 20:06:36;;;;;;;7.53;1.63;;;12.40;99.90;;;;;;5062390;28;20017;-68
2023/05/29 20:09:05;;;;;;;1.17;1.13;;;12.40;99.90;;;;;;5080990;28;20322;-71
2023/05/29 20:11:32;;;;;;;12.27;1.55;;;12.40;99.90;;;;;;5070708;28;20114;-68
2023/05/29 20:13:58;;;;;;;3.15;1.10;;;12.30;99.90;;;;;;5072223;28;20021;-68
2023/05/29 20:16:24;;;;;;;13.77;1.17;;;12.20;99.90;;;;;;5091222;28;20043;-69
2023/05/29 20:18:50;;;;;;;9.68;1.38;;;12.30;99.90;;;;;;5088023;28;20334;-68
2023/05/29 20:21:16;;;;;;;7.03;1.23;;;12.20;99.90;;;;;;5076957;28;20028;-68
2023/05/29 20:23:42;;;;;;;4.77;1.10;;;12.20;99.90;;;;;;5082980;28;20031;-68
2023/05/29 20:26:08;;;;;;;2.93;1.43;;;12.20;99.90;;;;;;5072970;28;20272;-68
2023/05/29 20:28:34;;;;;;;4.77;0.90;;;12.10;99.90;;;;;;5082964;28;20078;-76
2023/05/29 20:31:00;;;;;;;4.43;0.90;;;12.10;99.90;;;;;;5072506;28;20085;-69
2023/05/29 20:33:26;;;;;;;3.35;0.90;;;12.10;99.90;;;;;;5085423;28;20048;-67
2023/05/29 20:35:52;;;;;;;5.00;1.40;;;12.10;99.90;;;;;;5071264;28;20414;-68
2023/05/29 20:38:18;;;;;;;3.93;0.57;;;12.10;99.90;;;;;;5084644;28;20024;-67
2023/05/29 20:40:45;;;;;;;9.07;1.27;;;12.10;99.90;;;;;;5086059;28;20096;-68
2023/05/29 20:43:11;;;;;;;6.53;1.42;;;12.00;99.90;;;;;;5087118;28;20047;-67
2023/05/29 20:45:38;;;;;;;2.75;1.52;;;12.00;99.90;;;;;;5070036;28;20025;-68
2023/05/29 20:48:05;;;;;;;1.45;0.57;;;12.00;99.90;;;;;;5069241;28;20461;-68
2023/05/29 20:50:31;;;;;;;14.52;2.55;;;12.00;99.90;;;;;;5065361;28;20029;-67
2023/05/29 20:52:57;;;;;;;3.45;1.58;;;11.90;99.90;;;;;;5070274;28;20029;-68
2023/05/29 20:55:25;;;;;;;6.03;0.80;;;11.90;99.90;;;;;;5068882;28;20524;-69
2023/05/29 20:57:52;;;;;;;10.05;0.88;;;11.90;99.90;;;;;;5066076;28;20024;-69
2023/05/29 21:00:18;;;;;;;1.30;1.00;;;11.80;99.90;;;;;;5066443;28;20025;-67
2023/05/29 21:02:44;;;;;;;5.93;1.53;;;11.80;99.90;;;;;;5066489;28;20032;-75
2023/05/29 21:05:10;;;;;;;7.30;1.67;;;11.80;99.90;;;;;;5065124;28;20024;-68
2023/05/29 21:07:37;;;;;;;6.33;1.10;;;11.80;99.90;;;;;;5066629;28;20120;-68
2023/05/29 21:10:07;;;;;;;8.63;1.05;;;11.80;99.90;;;;;;5063954;28;20414;-67
2023/05/29 21:12:36;;;;;;;7.38;1.50;;;11.70;99.90;;;;;;5068036;28;20036;-68
2023/05/29 21:15:03;;;;;;;4.68;0.45;;;11.70;99.90;;;;;;5065538;28;20031;-68
2023/05/29 21:17:29;;;;;;;6.28;0.75;;;11.70;99.90;;;;;;5073029;28;20365;-67
2023/05/29 21:19:58;;;;;;;4.50;1.35;;;11.60;99.90;;;;;;5072261;28;20032;-74
2023/05/29 21:22:25;;;;;;;4.57;1.13;;;11.60;99.90;;;;;;5075413;28;20028;-68
2023/05/29 21:24:51;;;;;;;;;;;11.60;99.90;;;;;;5075312;28;20357;-68
2023/05/29 21:27:17;;;;;;;2.77;1.37;;;11.60;99.90;;;;;;5068791;28;19911;-74
2023/05/29 21:29:42;;;;;;;19.53;1.13;;;11.50;99.90;;;;;;5065254;28;20315;-69
2023/05/29 21:32:09;;;;;;;5.53;1.30;;;11.50;99.90;;;;;;5067725;28;20027;-67
2023/05/29 21:34:35;;;;;;;5.28;1.00;;;11.50;99.90;;;;;;5064805;28;20032;-68
2023/05/29 21:37:01;;;;;;;4.43;1.10;;;11.50;99.90;;;;;;5061603;28;20031;-68
2023/05/29 21:39:27;;;;;;;0.87;0.87;;;11.50;99.90;;;;;;5070071;28;20029;-68
2023/05/29 21:41:53;;;;;;;5.15;0.95;;;11.40;99.90;;;;;;5066627;28;20099;-68
2023/05/29 21:44:19;;;;;;;1.40;0.70;;;11.50;99.90;;;;;;5065603;28;20099;-68
2023/05/29 21:46:46;;;;;;;13.25;2.17;;;11.50;99.90;;;;;;5067571;28;20035;-68
2023/05/29 21:49:12;;;;;;;4.72;1.95;;;11.40;99.90;;;;;;5061796;28;20047;-68
2023/05/29 21:51:38;;;;;;;1.50;0.97;;;11.50;99.90;;;;;;5065742;28;20307;-67
2023/05/29 21:54:04;;;;;;;11.83;1.00;;;11.40;99.90;;;;;;5068274;28;20029;-74
2023/05/29 21:56:30;;;;;;;6.60;1.85;;;11.50;99.90;;;;;;5070205;28;20048;-68
2023/05/29 21:58:57;;;;;;;2.42;1.55;;;11.40;99.90;;;;;;5068110;28;20684;-68
2023/05/29 22:01:24;;;;;;;6.18;1.20;;;11.40;99.90;;;;;;5065554;28;20578;-67
2023/05/29 22:03:51;;;;;;;4.25;1.70;;;11.40;99.90;;;;;;5079500;28;20027;-67
2023/05/29 22:06:17;;;;;;;7.35;1.23;;;11.40;99.90;;;;;;5071482;28;20033;-66
2023/05/29 22:08:45;;;;;;;5.32;1.20;;;11.40;99.90;;;;;;5067072;28;20049;-68
2023/05/29 22:11:13;;;;;;;4.32;1.10;;;11.40;99.90;;;;;;5070698;28;20036;-75
2023/05/29 22:13:39;;;;;;;4.43;1.05;;;11.40;99.90;;;;;;5075251;28;20025;-67
2023/05/29 22:16:07;;;;;;;2.03;0.93;;;11.40;99.90;;;;;;5060990;28;20036;-75
2023/05/29 22:18:36;;;;;;;1.08;0.70;;;11.40;99.90;;;;;;5079926;28;20031;-68
2023/05/29 22:21:04;;;;;;;1.75;1.30;;;11.30;99.90;;;;;;5069401;28;20016;-68
2023/05/29 22:23:33;;;;;;;3.58;1.55;;;11.30;99.90;;;;;;5068141;28;20295;-68
2023/05/29 22:26:01;;;;;;;4.50;1.15;;;11.30;99.90;;;;;;5074441;28;20099;-67
2023/05/29 22:28:28;;;;;;;12.60;1.38;;;11.30;99.90;;;;;;5075679;28;20028;-68
2023/05/29 22:30:55;;;;;;;8.05;1.27;;;11.30;99.90;;;;;;5062391;28;20031;-68
2023/05/29 22:33:21;;;;;;;;;;;11.30;99.90;;;;;;5068890;28;20458;-69
2023/05/29 22:35:47;;;;;;;8.32;1.45;;;11.30;99.90;;;;;;5065841;28;19939;-70
2023/05/29 22:38:13;;;;;;;5.78;1.20;;;11.30;99.90;;;;;;5071884;28;20052;-68
2023/05/29 22:40:39;;;;;;;6.43;1.70;;;11.30;99.90;;;;;;5075054;28;20048;-68
2023/05/29 22:43:06;;;;;;;1.60;0.90;;;11.30;99.90;;;;;;5072103;28;20024;-68
2023/05/29 22:45:32;;;;;;;;;;;11.20;99.90;;;;;;5072032;28;20044;-67
2023/05/29 22:47:58;;;;;;;10.00;1.95;;;11.20;99.90;;;;;;5073307;28;19916;-68
2023/05/29 22:50:24;;;;;;;4.15;1.58;;;11.20;99.90;;;;;;5075560;28;20040;-67
2023/05/29 22:52:50;;;;;;;3.95;1.00;;;11.20;99.90;;;;;;5073768;28;20414;-76
2023/05/29 22:55:16;;;;;;;4.57;2.30;;;11.20;99.90;;;;;;5067843;28;20072;-67
2023/05/29 22:57:42;;;;;;;5.80;1.33;;;11.20;99.90;;;;;;5080751;28;20029;-68
2023/05/29 23:00:09;;;;;;;12.13;1.47;;;11.30;99.90;;;;;;5060745;28;20310;-67
2023/05/29 23:02:37;;;;;;;8.73;1.75;;;11.30;99.90;;;;;;5067022;28;20427;-68
2023/05/29 23:05:03;;;;;;;3.95;1.20;;;11.30;99.90;;;;;;5069812;28;20485;-68
2023/05/29 23:07:29;;;;;;;9.80;1.40;;;11.30;99.90;;;;;;5069897;28;20025;-68
2023/05/29 23:09:55;;;;;;;6.53;1.27;;;11.30;99.90;;;;;;5067015;28;20318;-74
2023/05/29 23:12:21;;;;;;;13.27;2.07;;;11.30;99.90;;;;;;5067338;28;20374;-68
2023/05/29 23:14:47;;;;;;;11.20;4.03;;;11.20;99.90;;;;;;5063843;28;20028;-66
2023/05/29 23:17:13;;;;;;;11.00;2.33;;;11.20;99.90;;;;;;5073676;28;20021;-66
2023/05/29 23:19:39;;;;;;;9.10;1.83;;;11.20;99.90;;;;;;5074774;28;20040;-66
2023/05/29 23:22:05;;;;;;;9.10;1.43;;;11.30;99.90;;;;;;5072558;28;20031;-68
2023/05/29 23:24:31;;;;;;;8.77;1.90;;;11.20;99.90;;;;;;5071041;28;20044;-68
2023/05/29 23:26:57;;;;;;;10.10;1.63;;;11.20;99.90;;;;;;5071124;28;20101;-68
2023/05/29 23:29:25;;;;;;;7.82;1.35;;;11.20;99.90;;;;;;5068415;28;20315;-67
2023/05/29 23:31:51;;;;;;;2.15;1.25;;;11.30;99.90;;;;;;5071783;28;20104;-67
2023/05/29 23:34:17;;;;;;;6.38;1.50;;;11.30;99.90;;;;;;5069190;28;20028;-68
2023/05/29 23:36:44;;;;;;;4.87;1.40;;;11.30;99.90;;;;;;5070592;28;20036;-74
2023/05/29 23:39:13;;;;;;;8.02;2.30;;;11.30;99.90;;;;;;5072532;28;20702;-68
2023/05/29 23:41:41;;;;;;;10.65;2.05;;;11.30;99.90;;;;;;5068032;28;20025;-67
2023/05/29 23:44:08;;;;;;;14.60;1.52;;;11.30;99.90;;;;;;5063058;28;20028;-67
2023/05/29 23:46:35;;;;;;;7.78;1.75;;;11.30;99.90;;;;;;5062923;28;20078;-67
2023/05/29 23:49:01;;;;;;;;;;;11.30;99.90;;;;;;5068383;28;20028;-67
2023/05/29 23:51:29;;;;;;;14.85;2.00;;;11.30;99.90;;;;;;5063724;28;19908;-68
2023/05/29 23:53:56;;;;;;;10.18;1.80;;;11.30;99.90;;;;;;5068553;28;20028;-68
2023/05/29 23:56:22;;;;;;;9.13;1.88;;;11.30;99.90;;;;;;5071097;28;20036;-68
2023/05/29 23:58:48;;;;;;;13.15;2.08;;;11.30;99.90;;;;;;5062199;28;20028;-68
